Vanadium, New Mexico
Current Conditions -  °F | °C
As of 2:55 PM on Monday 24 Nov 2014 (Local Time) from KSVC Reporting Station
Clear Clear  
Wind Chill: 52°   Ceiling: Unl
Heat Index: 52°   Visibility: 10mi
Dew Point: -4°   Wind: 18mph
Humidity: 10%   Direction: 300°WNW
Pressure: 30.1"   Gusts: 24mph
Location:  32.6728°N, 108.053°W
Report Text: KSVC 242155Z AUTO 30016G21KT 10SM CLR 11/M20 A3010 RMK AO2
Loading
Personal Weather Stations






























Interactive Weather Map New forecast layout! Learn more

10-Day Weather Forecast

Advertisements
Track Severe Weather on mobile